createdAt,value
2019-04-28T00:03:51.470Z,100653.68
2019-04-28T00:08:56.810Z,100658.24
2019-04-28T00:14:02.436Z,100660.53
2019-04-28T00:19:07.926Z,100668.64
2019-04-28T00:24:23.062Z,100671.55
2019-04-28T00:29:38.536Z,100679.98
2019-04-28T00:34:35.947Z,100680.41
2019-04-28T00:39:41.425Z,100689.99
2019-04-28T00:44:46.884Z,100687.03
2019-04-28T00:49:52.540Z,100686.91
2019-04-28T00:54:58.094Z,100677.89
2019-04-28T01:00:03.719Z,100688.89
2019-04-28T01:05:11.327Z,100685.75
2019-04-28T01:10:18.024Z,100684.26
2019-04-28T01:15:42.511Z,100680.19
2019-04-28T01:20:49.563Z,100677.87
2019-04-28T01:25:55.198Z,100667.56
2019-04-28T01:31:09.575Z,100676.41
2019-04-28T01:36:15.163Z,100668.86
2019-04-28T01:41:20.967Z,100665.28
2019-04-28T01:46:26.426Z,100679.52
2019-04-28T01:51:32.016Z,100673.13
2019-04-28T01:56:37.496Z,100667.80
2019-04-28T02:01:43.010Z,100663.23
2019-04-28T02:06:49.726Z,100667.64
2019-04-28T02:11:55.146Z,100667.72
2019-04-28T02:17:00.689Z,100672.66
2019-04-28T02:22:16.395Z,100675.74
2019-04-28T02:27:22.117Z,100681.48
2019-04-28T02:32:30.671Z,100691.78
2019-04-28T02:37:34.721Z,100686.14
2019-04-28T02:42:40.906Z,100686.94
2019-04-28T02:47:47.309Z,100689.77
2019-04-28T02:52:57.908Z,100693.50
2019-04-28T02:58:03.511Z,100698.03
2019-04-28T03:03:11.029Z,100694.55
2019-04-28T03:08:16.249Z,100698.56
2019-04-28T03:13:21.967Z,100691.80
2019-04-28T03:18:27.544Z,100683.67
2019-04-28T03:23:33.288Z,100681.73
2019-04-28T03:28:47.031Z,100678.88
2019-04-28T03:33:55.455Z,100665.64
2019-04-28T03:39:00.774Z,100665.64
2019-04-28T03:44:06.547Z,100670.84
2019-04-28T03:49:13.582Z,100671.25
2019-04-28T03:54:20.426Z,100663.28
2019-04-28T03:59:26.106Z,100664.80
2019-04-28T04:04:32.235Z,100668.70
2019-04-28T04:09:46.029Z,100671.00
2019-04-28T04:14:56.878Z,100676.97
2019-04-28T04:20:02.305Z,100675.66
2019-04-28T04:25:10.067Z,100673.16
2019-04-28T04:30:15.111Z,100673.02
2019-04-28T04:35:21.430Z,100671.36
2019-04-28T04:40:26.947Z,100665.80
2019-04-28T04:45:32.466Z,100664.50
2019-04-28T04:50:37.937Z,100668.94
2019-04-28T04:55:43.411Z,100665.32
2019-04-28T05:00:56.509Z,100662.81
2019-04-28T05:06:03.645Z,100669.77
2019-04-28T05:11:09.612Z,100672.52
2019-04-28T05:16:15.664Z,100672.77
2019-04-28T05:21:21.545Z,100671.66
2019-04-28T05:26:27.157Z,100666.27
2019-04-28T05:31:32.544Z,100676.64
2019-04-28T05:36:42.406Z,100680.22
2019-04-28T05:41:45.231Z,100673.79
2019-04-28T05:46:50.900Z,100676.71
2019-04-28T05:52:00.653Z,100687.16
2019-04-28T05:57:14.127Z,100685.79
2019-04-28T06:02:24.009Z,100691.19
2019-04-28T06:07:35.136Z,100694.03
2019-04-28T06:12:40.684Z,100693.91
2019-04-28T06:17:46.339Z,100700.30
2019-04-28T06:22:51.797Z,100692.94
2019-04-28T06:27:57.276Z,100696.14
2019-04-28T06:33:07.994Z,100714.05
2019-04-28T06:38:13.118Z,100704.59
2019-04-28T06:43:18.578Z,100712.70
2019-04-28T06:48:24.505Z,100707.14
2019-04-28T06:53:29.984Z,100717.50
2019-04-28T06:58:35.446Z,100713.68
2019-04-28T07:03:40.837Z,100717.81
2019-04-28T07:08:46.571Z,100711.58
2019-04-28T07:13:52.032Z,100716.34
2019-04-28T07:18:57.809Z,100712.42
2019-04-28T07:24:03.464Z,100715.44
2019-04-28T07:29:09.047Z,100723.42
2019-04-28T07:34:14.551Z,100727.25
2019-04-28T07:39:20.058Z,100727.36
2019-04-28T07:44:25.536Z,100724.47
2019-04-28T07:49:31.066Z,100715.16
2019-04-28T07:54:36.536Z,100723.62
2019-04-28T07:59:42.120Z,100715.70
2019-04-28T08:04:47.721Z,100714.69
2019-04-28T08:09:53.295Z,100711.16
2019-04-28T08:14:59.104Z,100711.06
2019-04-28T08:20:05.750Z,100711.81
2019-04-28T08:25:12.625Z,100707.16
2019-04-28T08:30:18.136Z,100710.10
2019-04-28T08:35:23.494Z,100710.45
2019-04-28T08:40:28.856Z,100712.78
2019-04-28T08:45:34.683Z,100717.91
2019-04-28T08:50:40.272Z,100718.42
2019-04-28T08:55:46.153Z,100717.31
2019-04-28T09:00:51.568Z,100714.53
2019-04-28T09:05:57.140Z,100728.52
2019-04-28T09:11:02.634Z,100724.11
2019-04-28T09:16:08.029Z,100724.00
2019-04-28T09:21:13.466Z,100729.56
2019-04-28T09:26:18.874Z,100733.01
2019-04-28T09:31:24.396Z,100736.17
2019-04-28T09:36:30.130Z,100738.69
2019-04-28T09:41:37.400Z,100742.22
2019-04-28T09:46:43.438Z,100735.55
2019-04-28T09:51:48.904Z,100734.88
2019-04-28T09:56:56.771Z,100741.26
2019-04-28T10:02:01.912Z,100746.00
2019-04-28T10:07:07.543Z,100750.59
2019-04-28T10:12:12.898Z,100753.11
2019-04-28T10:17:18.469Z,100752.84
2019-04-28T10:22:24.699Z,100764.88
2019-04-28T10:27:30.052Z,100761.27
2019-04-28T10:32:35.487Z,100749.86
2019-04-28T10:37:42.174Z,100753.80
2019-04-28T10:42:47.859Z,100755.45
2019-04-28T10:47:53.621Z,100755.89
2019-04-28T10:52:59.056Z,100754.51
2019-04-28T10:58:04.456Z,100756.11
2019-04-28T11:03:09.951Z,100747.95
2019-04-28T11:08:34.509Z,100750.88
2019-04-28T11:13:39.971Z,100756.15
2019-04-28T11:18:45.459Z,100755.75
2019-04-28T11:23:50.980Z,100752.85
2019-04-28T11:28:57.053Z,100760.59
2019-04-28T11:34:11.005Z,100761.42
2019-04-28T11:39:20.938Z,100757.81
2019-04-28T11:44:26.388Z,100754.73
2019-04-28T11:49:31.912Z,100750.94
2019-04-28T11:54:37.764Z,100748.52
2019-04-28T11:59:43.386Z,100741.50
2019-04-28T12:04:48.959Z,100740.23
2019-04-28T12:10:05.893Z,100735.47
2019-04-28T12:15:18.978Z,100728.42
2019-04-28T12:20:25.535Z,100737.95
2019-04-28T12:25:30.821Z,100737.97
2019-04-28T12:30:36.508Z,100740.09
2019-04-28T12:35:47.960Z,100745.22
2019-04-28T12:40:49.186Z,100740.23
2019-04-28T12:45:54.606Z,100745.89
2019-04-28T12:51:00.000Z,100751.03
2019-04-28T12:56:05.482Z,100746.78
2019-04-28T13:01:19.978Z,100749.35
2019-04-28T13:06:25.742Z,100754.52
2019-04-28T13:11:31.141Z,100750.25
2019-04-28T13:16:36.838Z,100749.36
2019-04-28T13:21:58.386Z,100764.62
2019-04-28T13:34:04.017Z,100757.74
2019-04-28T13:39:12.848Z,100758.31
2019-04-28T13:44:39.338Z,100764.37
2019-04-28T13:49:50.939Z,100759.77
2019-04-28T13:55:06.450Z,100757.31
2019-04-28T14:00:14.112Z,100757.31
2019-04-28T14:05:27.997Z,100762.95
2019-04-28T14:10:33.525Z,100758.73
2019-04-28T14:15:39.112Z,100762.09
2019-04-28T14:20:44.609Z,100752.63
2019-04-28T14:25:49.956Z,100760.84
2019-04-28T14:30:55.542Z,100760.09
2019-04-28T14:36:00.918Z,100759.36
2019-04-28T14:41:06.393Z,100762.63
2019-04-28T14:46:11.856Z,100754.11
2019-04-28T14:51:17.215Z,100764.17
2019-04-28T14:56:22.543Z,100756.99
2019-04-28T15:01:46.701Z,100744.59
2019-04-28T15:07:02.951Z,100751.69
2019-04-28T15:12:08.753Z,100747.16
2019-04-28T15:17:14.147Z,100760.95
2019-04-28T15:22:19.505Z,100756.53
2019-04-28T15:27:25.807Z,100751.54
2019-04-28T15:32:31.528Z,100742.45
2019-04-28T15:37:37.247Z,100746.88
2019-04-28T15:42:42.554Z,100743.94
2019-04-28T15:47:47.804Z,100745.22
2019-04-28T15:52:53.037Z,100746.30
2019-04-28T15:57:59.971Z,100742.27
2019-04-28T16:03:05.414Z,100734.46
2019-04-28T16:08:10.783Z,100739.84
2019-04-28T16:13:16.193Z,100734.58
2019-04-28T16:18:21.511Z,100741.96
2019-04-28T16:23:27.003Z,100740.80
2019-04-28T16:28:32.584Z,100738.42
2019-04-28T16:33:38.383Z,100746.37
2019-04-28T16:38:43.910Z,100736.81
2019-04-28T16:43:53.070Z,100739.03
2019-04-28T16:48:58.350Z,100737.47
2019-04-28T16:54:03.678Z,100742.98
2019-04-28T16:59:18.943Z,100750.84
2019-04-28T17:04:25.838Z,100750.84
2019-04-28T17:09:31.363Z,100740.04
2019-04-28T17:14:36.718Z,100748.18
2019-04-28T17:19:42.006Z,100740.69
2019-04-28T17:24:47.514Z,100745.16
2019-04-28T17:29:52.858Z,100735.72
2019-04-28T17:34:58.320Z,100736.28
2019-04-28T17:40:06.527Z,100733.70
2019-04-28T17:45:12.179Z,100727.73
2019-04-28T17:50:19.542Z,100731.39
2019-04-28T17:55:24.881Z,100728.09
2019-04-28T18:00:39.028Z,100734.70
2019-04-28T18:05:48.838Z,100723.19
2019-04-28T18:10:54.209Z,100730.55
2019-04-28T18:16:08.157Z,100729.58
2019-04-28T18:21:13.627Z,100727.72
2019-04-28T18:26:19.165Z,100725.70
2019-04-28T18:31:32.940Z,100726.59
2019-04-28T18:36:44.658Z,100737.14
2019-04-28T18:42:01.577Z,100755.63
2019-04-28T18:47:09.693Z,100765.13
2019-04-28T18:52:15.187Z,100766.03
2019-04-28T18:57:21.678Z,100760.41
2019-04-28T19:02:35.586Z,100763.78
2019-04-28T19:07:48.959Z,100768.57
2019-04-28T19:13:03.124Z,100768.03
2019-04-28T19:18:13.023Z,100773.09
2019-04-28T19:23:18.364Z,100773.84
2019-04-28T19:28:24.393Z,100772.87
2019-04-28T19:33:29.823Z,100762.36
2019-04-28T19:38:35.266Z,100767.84
2019-04-28T19:43:41.435Z,100766.02
2019-04-28T19:48:46.942Z,100768.66
2019-04-28T19:53:52.457Z,100780.02
2019-04-28T19:59:04.006Z,100786.14
2019-04-28T20:04:09.394Z,100786.63
2019-04-28T20:09:14.776Z,100790.75
2019-04-28T20:14:20.195Z,100789.32
2019-04-28T20:19:25.552Z,100800.85
2019-04-28T20:24:31.579Z,100806.47
2019-04-28T20:29:36.898Z,100808.44
2019-04-28T20:34:44.598Z,100804.46
2019-04-28T20:39:53.415Z,100809.14
2019-04-28T20:44:59.993Z,100798.91
2019-04-28T20:50:05.758Z,100800.98
2019-04-28T20:55:11.253Z,100800.98
2019-04-28T21:00:17.064Z,100809.43
2019-04-28T21:05:22.601Z,100806.02
2019-04-28T21:10:37.548Z,100801.16
2019-04-28T21:15:37.820Z,100808.12
2019-04-28T21:20:43.325Z,100808.72
2019-04-28T21:25:48.806Z,100814.08
2019-04-28T21:30:54.227Z,100806.97
2019-04-28T21:35:59.753Z,100812.17
2019-04-28T21:41:05.675Z,100806.45
2019-04-28T21:46:18.906Z,100809.30
2019-04-28T21:51:24.413Z,100808.53
2019-04-28T21:56:29.698Z,100797.92
2019-04-28T22:01:35.103Z,100797.52
2019-04-28T22:06:40.490Z,100797.52
2019-04-28T22:11:45.992Z,100796.65
2019-04-28T22:16:51.347Z,100798.93
2019-04-28T22:21:56.694Z,100793.31
2019-04-28T22:27:02.107Z,100798.39
2019-04-28T22:32:07.437Z,100795.42
2019-04-28T22:37:13.167Z,100802.97
2019-04-28T22:42:18.493Z,100802.78
2019-04-28T22:47:24.563Z,100812.37
2019-04-28T22:52:29.820Z,100808.16
2019-04-28T22:57:53.965Z,100806.19
2019-04-28T23:02:59.523Z,100800.59
2019-04-28T23:08:04.825Z,100803.27
2019-04-28T23:13:10.053Z,100799.87
2019-04-28T23:18:15.618Z,100810.79
2019-04-28T23:23:21.068Z,100812.28
2019-04-28T23:28:26.390Z,100807.05
2019-04-28T23:33:31.662Z,100807.93
2019-04-28T23:38:37.140Z,100811.92
2019-04-28T23:43:42.562Z,100812.33
2019-04-28T23:48:52.317Z,100817.66
2019-04-28T23:54:01.712Z,100819.17
2019-04-28T23:59:07.023Z,100812.30
